Time;durP1;ratioP1;P1;durP2;ratioP2;P2;SDS_P1;SDS_P2;PMS_P1;PMS_P2;Temp;Humidity;BMP_temperature;BMP_pressure;BME280_temperature;BME280_humidity;BME280_pressure;Samples;Min_cycle;Max_cycle;Signal;HPM_P1;HPM_P2
2022/11/16 00:01:03;;;;;;;32.00;14.03;;;;;;;8.09;73.16;100089.69;124653;1104;104208;-76
2022/11/16 00:03:37;;;;;;;28.23;12.83;;;;;;;8.10;72.74;100091.48;124231;1105;104280;-77
2022/11/16 00:06:10;;;;;;;32.42;14.28;;;;;;;8.08;73.00;100087.02;124494;1104;104715;-77
2022/11/16 00:08:43;;;;;;;29.93;13.37;;;;;;;8.08;73.08;100081.80;124140;1105;104197;-81
2022/11/16 00:11:17;;;;;;;32.77;15.30;;;;;;;8.12;72.35;100088.02;124282;1105;104249;-78
2022/11/16 00:13:49;;;;;;;33.27;15.07;;;;;;;8.10;72.75;100085.34;124640;1105;104182;-78
2022/11/16 00:16:20;;;;;;;32.53;16.20;;;;;;;8.10;72.49;100085.34;124542;1106;102125;-78
2022/11/16 00:18:58;;;;;;;31.83;14.17;;;;;;;8.09;73.07;100087.08;124274;1105;104195;-78
2022/11/16 00:21:31;;;;;;;36.53;17.10;;;;;;;8.08;72.79;100079.18;124549;1105;104185;-78
2022/11/16 00:24:02;;;;;;;38.30;18.03;;;;;;;8.06;72.50;100073.02;124828;1105;104592;-76
2022/11/16 00:26:33;;;;;;;38.17;17.43;;;;;;;8.03;72.82;100079.00;124529;1105;104271;-77
2022/11/16 00:29:05;;;;;;;38.77;19.27;;;;;;;7.99;72.52;100065.75;124648;1105;104182;-77
2022/11/16 00:31:36;;;;;;;39.20;18.73;;;;;;;7.97;72.93;100062.20;124532;1105;101927;-77
2022/11/16 00:34:08;;;;;;;40.97;20.17;;;;;;;7.93;72.66;100050.72;124960;1105;104309;-78
2022/11/16 00:36:39;;;;;;;42.87;20.83;;;;;;;7.89;72.98;100049.72;124544;1105;104255;-78
2022/11/16 00:39:12;;;;;;;42.80;20.03;;;;;;;7.86;72.63;100041.77;124349;1105;104178;-78
2022/11/16 00:41:44;;;;;;;44.40;20.60;;;;;;;7.86;73.12;100041.77;124354;1105;104267;-78
2022/11/16 00:44:16;;;;;;;48.57;21.50;;;;;;;7.87;72.85;100046.16;123989;1105;104306;-78
2022/11/16 00:46:48;;;;;;;45.63;22.50;;;;;;;7.87;72.67;100047.90;124759;1105;104284;-78
2022/11/16 00:49:19;;;;;;;48.90;23.10;;;;;;;7.85;72.77;100045.23;124626;1105;104252;-78
2022/11/16 00:51:50;;;;;;;46.77;21.67;;;;;;;7.86;72.48;100046.11;124373;1105;104485;-76
2022/11/16 00:54:22;;;;;;;49.90;23.53;;;;;;;7.86;72.67;100030.44;123914;1105;104623;-78
2022/11/16 00:56:54;;;;;;;52.47;24.53;;;;;;;7.84;72.68;100030.37;124367;1106;104293;-78
2022/11/16 00:59:27;;;;;;;52.17;23.87;;;;;;;7.82;72.40;100026.82;124528;1105;104300;-79
2022/11/16 01:01:59;;;;;;;;;;;;;;;7.79;72.97;100031.92;124233;1105;104217;-77
2022/11/16 01:04:30;;;;;;;51.70;24.20;;;;;;;7.79;72.47;100021.48;124149;1105;104312;-78
2022/11/16 01:07:03;;;;;;;54.37;26.10;;;;;;;7.78;72.90;100022.30;124295;1104;104233;-77
2022/11/16 01:09:35;;;;;;;54.13;24.63;;;;;;;7.79;72.60;100021.48;124139;1105;104354;-78
2022/11/16 01:12:11;;;;;;;57.10;25.83;;;;;;;7.79;73.22;100011.03;124839;1105;104329;-78
2022/11/16 01:14:46;;;;;;;58.67;25.80;;;;;;;7.79;72.89;100015.34;124283;1105;104610;-78
2022/11/16 01:17:17;;;;;;;59.50;26.43;;;;;;;7.78;72.54;100004.02;123861;1105;104734;-78
2022/11/16 01:19:49;;;;;;;56.27;25.67;;;;;;;7.78;73.13;100005.74;123963;1105;104242;-78
2022/11/16 01:22:20;;;;;;;51.23;24.97;;;;;;;7.79;72.55;100008.42;123829;1104;104293;-78
2022/11/16 01:24:51;;;;;;;57.60;27.95;;;;;;;7.77;72.82;100010.05;124873;1097;104345;-77
2022/11/16 01:27:23;;;;;;;51.93;25.80;;;;;;;7.75;72.75;100009.11;124230;1105;104197;-78
2022/11/16 01:29:54;;;;;;;52.37;24.20;;;;;;;7.76;72.77;100010.91;124444;1105;104223;-77
2022/11/16 01:32:28;;;;;;;60.03;26.30;;;;;;;7.71;72.66;100009.81;124938;1105;104273;-78
2022/11/16 01:34:59;;;;;;;55.10;25.20;;;;;;;7.68;72.69;99996.63;124123;1105;103791;-76
2022/11/16 01:37:35;;;;;;;54.43;26.93;;;;;;;7.65;73.03;99996.52;124535;1105;104053;-77
2022/11/16 01:40:09;;;;;;;54.03;25.57;;;;;;;7.66;72.52;99987.86;124205;1105;104345;-77
2022/11/16 01:42:41;;;;;;;58.20;27.43;;;;;;;7.66;72.78;99990.47;124369;1105;104377;-78
2022/11/16 01:45:32;;;;;;;56.37;26.70;;;;;;;7.67;72.56;99979.20;124373;1103;104210;-77
2022/11/16 01:48:04;;;;;;;56.17;26.47;;;;;;;7.67;72.97;99973.98;124517;1105;104293;-78
2022/11/16 01:50:38;;;;;;;54.17;26.23;;;;;;;7.67;73.15;99982.70;124074;1105;105602;-78
2022/11/16 01:53:12;;;;;;;56.03;26.77;;;;;;;7.64;73.22;99971.25;123894;1103;104236;-78
2022/11/16 01:55:50;;;;;;;57.83;27.10;;;;;;;7.65;73.28;99970.40;123883;1105;104418;-78
2022/11/16 01:58:42;;;;;;;58.57;27.20;;;;;;;7.65;72.82;99967.79;124368;1105;104264;-76
2022/11/16 02:01:21;;;;;;;53.50;26.20;;;;;;;7.63;73.00;99965.12;124524;1105;104226;-78
2022/11/16 02:03:56;;;;;;;60.30;27.47;;;;;;;7.63;72.84;99964.23;123818;1106;104358;-81
2022/11/16 02:06:40;;;;;;;57.80;27.13;;;;;;;7.61;72.98;99960.69;124291;1105;102230;-78
2022/11/16 02:09:54;;;;;;;57.27;26.93;;;;;;;7.60;72.66;99966.73;123975;1105;104354;-78
2022/11/16 02:12:51;;;;;;;57.07;28.00;;;;;;;7.56;72.77;99950.06;125074;1104;102321;-78
2022/11/16 02:15:31;;;;;;;57.40;26.70;;;;;;;7.54;72.89;99947.39;124378;1105;104280;-77
2022/11/16 02:18:23;;;;;;;59.27;26.30;;;;;;;7.54;72.99;99942.17;123860;1105;104357;-79
2022/11/16 02:21:16;;;;;;;58.90;27.40;;;;;;;7.56;72.75;99944.84;123725;1105;104277;-78
2022/11/16 02:24:09;;;;;;;57.03;25.97;;;;;;;7.55;72.85;99937.83;125236;1105;104162;-78
2022/11/16 02:27:23;;;;;;;58.77;24.70;;;;;;;7.56;72.74;99931.79;124133;1105;104274;-78
2022/11/16 02:29:56;;;;;;;58.03;26.03;;;;;;;7.53;73.26;99929.94;124097;1105;104320;-78
2022/11/16 02:32:34;;;;;;;60.20;27.80;;;;;;;7.54;73.24;99923.89;124056;1105;102114;-78
2022/11/16 02:35:13;;;;;;;58.77;28.00;;;;;;;7.54;72.81;99922.98;124170;1105;104430;-77
2022/11/16 02:37:52;;;;;;;57.67;26.77;;;;;;;7.51;72.76;99915.03;124789;1105;104182;-78
2022/11/16 02:40:33;;;;;;;64.23;27.63;;;;;;;7.50;73.22;99913.27;123984;1105;104321;-79
2022/11/16 02:43:09;;;;;;;60.50;28.37;;;;;;;7.51;73.52;99909.81;124858;1105;104261;-77
2022/11/16 02:45:44;;;;;;;60.60;28.10;;;;;;;7.52;73.12;99906.38;124268;1105;104290;-78
2022/11/16 02:48:21;;;;;;;65.70;28.20;;;;;;;7.53;73.16;99909.05;124080;1105;104190;-78
2022/11/16 02:50:54;;;;;;;60.93;28.03;;;;;;;7.54;73.22;99905.62;123993;1103;104275;-79
2022/11/16 02:53:27;;;;;;;66.07;29.27;;;;;;;7.55;73.19;99896.94;123925;1105;104166;-78
2022/11/16 02:56:01;;;;;;;65.43;29.13;;;;;;;7.59;73.17;99897.05;124288;1105;104258;-77
2022/11/16 02:58:32;;;;;;;62.40;28.90;;;;;;;7.58;73.58;99890.07;123942;1105;104370;-77
2022/11/16 03:01:09;;;;;;;63.97;29.17;;;;;;;7.59;73.72;99886.61;123779;1105;104348;-77
2022/11/16 03:03:49;;;;;;;61.33;28.77;;;;;;;7.59;73.38;99889.22;123732;1105;109328;-78
2022/11/16 03:06:24;;;;;;;60.80;26.57;;;;;;;7.59;73.31;99886.61;124408;1105;104220;-77
2022/11/16 03:09:04;;;;;;;64.53;29.07;;;;;;;7.57;73.56;99883.94;124719;1103;104286;-78
2022/11/16 03:14:35;;;;;;;68.50;29.33;;;;;;;7.58;72.93;99887.46;123876;1105;104703;-78
2022/11/16 03:17:11;;;;;;;65.80;28.97;;;;;;;7.57;73.22;99886.55;124232;1105;104310;-78
2022/11/16 03:19:49;;;;;;;68.60;29.60;;;;;;;7.53;73.47;99888.16;125759;1100;102222;-76
2022/11/16 03:22:26;;;;;;;65.07;28.80;;;;;;;7.49;73.75;99882.77;125102;1105;104299;-78
2022/11/16 03:24:58;;;;;;;72.10;30.27;;;;;;;7.45;73.40;99886.99;124762;1105;104274;-80
2022/11/16 03:27:37;;;;;;;65.43;29.83;;;;;;;7.46;73.34;99880.91;123994;1105;104294;-78
2022/11/16 03:30:14;;;;;;;67.63;29.60;;;;;;;7.48;73.86;99867.92;124165;1105;104172;-79
2022/11/16 03:32:55;;;;;;;66.43;29.70;;;;;;;7.48;73.55;99868.84;124117;1104;104249;-78
2022/11/16 03:35:30;;;;;;;65.50;28.97;;;;;;;7.51;73.87;99861.13;124663;1105;104236;-78
2022/11/16 03:38:04;;;;;;;60.87;28.37;;;;;;;7.52;73.85;99848.95;124367;1105;104310;-77
2022/11/16 03:40:40;;;;;;;59.53;27.10;;;;;;;7.50;73.40;99843.66;124859;1106;104176;-77
2022/11/16 03:43:13;;;;;;;66.23;28.83;;;;;;;7.46;73.64;99841.77;124613;1105;104296;-79
2022/11/16 03:45:47;;;;;;;69.20;29.77;;;;;;;7.45;73.88;99846.92;124193;1105;104367;-78
2022/11/16 03:48:18;;;;;;;69.63;29.27;;;;;;;7.46;73.63;99846.98;124364;1105;104249;-78
2022/11/16 03:50:50;;;;;;;65.27;29.33;;;;;;;7.47;73.75;99840.94;124253;1106;104671;-79
2022/11/16 03:53:22;;;;;;;66.67;28.73;;;;;;;7.49;73.97;99843.61;124104;1105;104256;-78
2022/11/16 03:55:53;;;;;;;67.47;29.17;;;;;;;7.50;74.02;99835.84;123827;1105;104382;-79
2022/11/16 03:58:24;;;;;;;74.80;31.27;;;;;;;7.50;73.59;99829.73;124332;1105;104246;-79
2022/11/16 04:00:57;;;;;;;62.85;28.30;;;;;;;7.49;73.85;99826.21;124293;1105;104370;-78
2022/11/16 04:03:28;;;;;;;73.17;30.17;;;;;;;7.46;73.90;99823.48;123950;1105;104332;-78
2022/11/16 04:26:01;;;;;;;71.87;29.17;;;;;;;7.49;74.38;99823.60;123693;1105;104315;-78
2022/11/16 04:28:35;;;;;;;75.63;30.50;;;;;;;7.50;74.43;99820.17;123712;1105;104211;-77
2022/11/16 04:39:48;;;;;;;63.30;28.73;;;;;;;7.46;74.08;99822.61;124093;1105;104326;-77
2022/11/16 04:42:21;;;;;;;67.47;28.03;;;;;;;7.41;74.33;99814.61;123760;1105;104495;-77
2022/11/16 04:47:54;;;;;;;66.53;29.20;;;;;;;7.40;74.28;99791.94;125180;1105;104221;-79
2022/11/16 04:50:42;;;;;;;66.90;28.77;;;;;;;7.42;74.40;99790.29;126378;1096;103417;31
2022/11/16 04:53:15;;;;;;;66.60;29.50;;;;;;;7.44;74.82;99787.73;125761;1105;101663;-78
2022/11/16 04:55:53;;;;;;;69.90;30.80;;;;;;;7.40;73.97;99786.72;125254;1105;104220;-79
2022/11/16 04:58:25;;;;;;;68.67;29.77;;;;;;;7.41;74.68;99782.41;125895;1096;104409;-76
2022/11/16 05:00:56;;;;;;;69.60;29.97;;;;;;;7.43;74.67;99784.22;124982;1105;104210;-80
2022/11/16 05:03:27;;;;;;;66.40;28.70;;;;;;;7.45;74.79;99785.19;124661;1105;104182;-78
2022/11/16 05:05:58;;;;;;;67.13;28.27;;;;;;;7.45;74.37;99774.74;125077;1105;101807;-78
2022/11/16 05:08:31;;;;;;;63.90;28.45;;;;;;;7.44;74.62;99769.47;124969;1105;104197;-77
2022/11/16 05:11:04;;;;;;;67.95;29.75;;;;;;;7.44;74.57;99769.47;125568;1105;104105;-77
2022/11/16 05:13:35;;;;;;;68.10;29.35;;;;;;;7.44;74.88;99753.80;124797;1105;104309;-76
2022/11/16 05:16:08;;;;;;;69.07;30.07;;;;;;;7.42;74.77;99748.53;125341;1105;104175;-77
2022/11/16 05:18:39;;;;;;;65.33;28.73;;;;;;;7.44;74.33;99757.30;125417;1105;102918;-77
2022/11/16 05:21:12;;;;;;;62.63;28.43;;;;;;;7.45;74.62;99759.08;124308;1105;101934;-78
2022/11/16 05:26:35;;;;;;;67.87;30.57;;;;;;;7.59;74.64;99761.28;124262;1105;104278;-77
2022/11/16 05:29:06;;;;;;;67.57;28.63;;;;;;;7.60;75.22;99757.84;124868;1105;104335;-77
2022/11/16 05:31:37;;;;;;;65.67;29.47;;;;;;;7.61;75.31;99759.63;125140;1105;103219;-77
2022/11/16 05:34:10;;;;;;;71.43;30.60;;;;;;;7.56;74.63;99762.95;125210;1105;104214;-76
2022/11/16 05:36:41;;;;;;;67.93;28.20;;;;;;;7.55;74.59;99765.52;124593;1105;104376;-76
2022/11/16 05:39:14;;;;;;;73.50;32.20;;;;;;;7.55;75.30;99765.52;124661;1105;104229;-76
2022/11/16 05:41:49;;;;;;;;;;;;;;;7.57;75.41;99769.05;126043;1096;104334;31
2022/11/16 05:44:21;;;;;;;73.05;30.88;;;;;;;7.57;75.25;99769.05;125057;1105;104233;-77
2022/11/16 05:46:54;;;;;;;68.33;28.50;;;;;;;7.61;75.26;99760.52;123813;1105;104371;-76
2022/11/16 05:49:25;;;;;;;69.00;29.37;;;;;;;7.63;74.98;99763.17;123893;1105;104380;-76
2022/11/16 05:51:57;;;;;;;74.47;29.90;;;;;;;7.67;74.82;99749.41;124340;1105;104293;-76
2022/11/16 05:54:30;;;;;;;66.00;29.37;;;;;;;7.68;75.65;99749.46;124815;1105;102213;-77
2022/11/16 05:57:01;;;;;;;71.80;30.57;;;;;;;7.69;74.81;99752.95;125169;1105;104168;-76
2022/11/16 05:59:33;;;;;;;73.60;30.90;;;;;;;7.71;74.94;99756.49;124452;1105;104299;-76
2022/11/16 06:02:04;;;;;;;75.83;31.83;;;;;;;7.76;75.11;99754.05;123736;1105;104366;-77
2022/11/16 06:04:40;;;;;;;74.20;30.17;;;;;;;7.80;75.28;99762.04;123742;1105;104293;-76
2022/11/16 06:07:15;;;;;;;75.90;30.17;;;;;;;7.81;75.10;99758.61;124121;1105;104163;-76
2022/11/16 06:09:48;;;;;;;67.60;28.92;;;;;;;7.83;74.88;99754.31;125083;1105;102072;-76
2022/11/16 06:12:24;;;;;;;67.33;28.23;;;;;;;7.87;75.42;99753.59;125236;1105;103150;-80
2022/11/16 06:14:55;;;;;;;69.23;31.00;;;;;;;7.88;75.61;99755.38;124569;1105;104332;-76
2022/11/16 06:17:32;;;;;;;70.40;30.53;;;;;;;7.92;75.22;99748.53;124869;1106;102613;-75
2022/11/16 06:20:04;;;;;;;70.93;30.60;;;;;;;7.96;75.59;99745.16;124857;1105;104277;-75
2022/11/16 06:22:39;;;;;;;68.67;29.03;;;;;;;7.98;75.40;99740.91;125801;1096;102636;-76
2022/11/16 06:25:11;;;;;;;73.30;30.63;;;;;;;7.97;75.38;99733.89;125843;1096;104008;-75
2022/11/16 06:27:50;;;;;;;68.80;29.10;;;;;;;8.00;75.48;99730.50;125637;1105;102708;-76
2022/11/16 06:30:22;;;;;;;66.03;28.70;;;;;;;7.99;74.96;99726.11;125381;1105;104280;-76
2022/11/16 06:32:56;;;;;;;70.20;30.00;;;;;;;8.01;75.34;99729.65;124700;1105;104160;-76
2022/11/16 06:38:02;;;;;;;64.00;28.27;;;;;;;8.02;75.60;99729.70;124597;1105;104380;-75
2022/11/16 06:40:33;;;;;;;63.40;27.53;;;;;;;8.05;75.29;99727.19;124488;1105;102519;-77
2022/11/16 06:43:07;;;;;;;59.73;25.90;;;;;;;8.06;75.44;99720.27;124816;1105;103086;-77
2022/11/16 06:45:44;;;;;;;60.63;28.23;;;;;;;8.05;75.38;99726.31;125023;1105;102998;-77
2022/11/16 06:48:17;;;;;;;62.47;27.37;;;;;;;8.03;75.56;99726.27;125063;1105;101922;-75
2022/11/16 06:50:53;;;;;;;66.03;28.47;;;;;;;8.03;75.29;99722.77;124655;1105;104221;-76
2022/11/16 06:53:24;;;;;;;67.10;27.63;;;;;;;8.03;75.60;99720.16;125676;1105;102016;-76
2022/11/16 06:56:02;;;;;;;71.47;29.57;;;;;;;8.05;75.38;99715.86;125829;1105;101606;-77
2022/11/16 06:58:43;;;;;;;64.85;26.85;;;;;;;8.07;75.11;99709.86;124080;1105;104248;-75
2022/11/16 07:01:15;;;;;;;63.30;27.90;;;;;;;8.07;75.34;99707.25;124416;1105;104182;-76
2022/11/16 07:03:48;;;;;;;71.33;29.73;;;;;;;8.06;75.55;99701.97;124381;1105;104211;-76
2022/11/16 07:06:21;;;;;;;67.90;27.60;;;;;;;8.04;75.29;99703.63;125335;1096;104363;-77
2022/11/16 07:08:57;;;;;;;69.43;28.40;;;;;;;8.02;74.99;99705.31;125099;1105;104191;-77
2022/11/16 07:11:33;;;;;;;64.97;28.10;;;;;;;8.03;75.03;99705.36;125965;1105;102036;-76
2022/11/16 07:14:05;;;;;;;62.93;26.43;;;;;;;8.07;75.63;99688.05;125988;1105;101852;-75
2022/11/16 07:16:41;;;;;;;62.70;27.57;;;;;;;8.10;75.76;99695.98;125954;1105;103048;-76
2022/11/16 07:19:15;;;;;;;67.43;27.67;;;;;;;8.13;75.81;99688.25;126024;1096;101959;-78
2022/11/16 07:21:53;;;;;;;70.93;28.63;;;;;;;8.19;75.27;99692.80;125874;1105;102538;-75
2022/11/16 07:24:49;;;;;;;68.10;27.53;;;;;;;8.22;75.38;99687.67;125826;1105;101838;-76
2022/11/16 07:27:36;;;;;;;71.50;28.03;;;;;;;8.24;75.38;99686.89;125594;1105;102624;-75
2022/11/16 07:30:19;;;;;;;65.50;25.83;;;;;;;8.24;75.42;99686.89;125593;1105;120277;-79
2022/11/16 07:33:31;;;;;;;67.13;28.20;;;;;;;8.25;75.08;99679.92;125597;1105;102235;-76
2022/11/16 07:36:23;;;;;;;62.90;26.40;;;;;;;8.27;75.73;99670.40;125813;1105;102692;-76
2022/11/16 07:39:00;;;;;;;69.10;27.70;;;;;;;8.26;75.29;99672.13;125173;1105;103172;-76
2022/11/16 07:41:43;;;;;;;66.20;28.17;;;;;;;8.29;74.98;99671.36;124618;1105;104031;-76
2022/11/16 07:47:11;;;;;;;67.90;28.77;;;;;;;8.31;74.79;99680.13;124067;1105;104339;-74
2022/11/16 07:49:47;;;;;;;67.30;28.05;;;;;;;8.30;75.62;99672.23;124102;1105;104290;-74
2022/11/16 07:52:26;;;;;;;64.10;26.57;;;;;;;8.25;74.98;99672.97;124117;1106;102805;-75
2022/11/16 07:55:02;;;;;;;64.97;26.77;;;;;;;8.19;74.85;99664.92;124434;1105;103344;-74
2022/11/16 07:57:34;;;;;;;63.63;26.27;;;;;;;8.17;75.53;99658.77;124389;1106;104137;-74
2022/11/16 08:00:12;;;;;;;64.07;28.93;;;;;;;8.17;74.86;99645.70;124174;1105;102618;-75
2022/11/16 08:02:55;;;;;;;67.20;27.30;;;;;;;8.22;74.97;99641.50;124166;1106;103153;-75
2022/11/16 08:05:28;;;;;;;69.30;27.70;;;;;;;8.25;75.13;99645.95;124312;1105;104245;-75
2022/11/16 08:08:06;;;;;;;62.60;27.00;;;;;;;8.28;75.65;99652.15;124117;1105;104264;-77
2022/11/16 08:10:44;;;;;;;67.20;27.47;;;;;;;8.32;75.31;99658.38;124365;1106;103555;-78
2022/11/16 08:13:18;;;;;;;76.10;29.17;;;;;;;8.37;75.00;99661.14;124133;1105;104348;-76
2022/11/16 08:15:52;;;;;;;74.70;29.23;;;;;;;8.37;75.23;99648.95;124553;1105;102926;-78
2022/11/16 08:18:25;;;;;;;69.60;28.63;;;;;;;8.38;74.92;99641.98;124562;1105;104360;-74
2022/11/16 08:21:00;;;;;;;70.73;28.60;;;;;;;8.40;75.38;99650.78;124747;1105;102895;-74
2022/11/16 08:23:39;;;;;;;67.83;29.33;;;;;;;8.46;75.68;99656.20;125798;1096;102703;31
2022/11/16 08:26:16;;;;;;;70.33;28.50;;;;;;;8.50;75.00;99657.20;125016;1105;104329;-79
2022/11/16 08:28:56;;;;;;;74.50;28.85;;;;;;;8.53;75.29;99649.45;125519;1105;102517;-76
2022/11/16 08:31:31;;;;;;;72.90;30.53;;;;;;;8.59;75.41;99647.90;125549;1105;111729;-75
2022/11/16 08:34:24;;;;;;;68.53;28.23;;;;;;;8.63;75.60;99649.77;125608;1105;103055;-76
2022/11/16 08:37:02;;;;;;;70.27;27.93;;;;;;;8.64;75.19;99641.06;125764;1105;102527;-77
2022/11/16 08:39:42;;;;;;;72.37;29.63;;;;;;;8.67;75.41;99634.17;125562;1105;102884;-77
2022/11/16 08:42:26;;;;;;;71.67;29.23;;;;;;;8.73;75.62;99636.97;125878;1104;102723;-78
2022/11/16 08:45:11;;;;;;;81.27;29.03;;;;;;;8.75;75.42;99643.13;125539;1109;103607;-77
2022/11/16 08:47:47;;;;;;;82.30;30.00;;;;;;;8.68;74.77;99641.16;126782;1096;102673;-75
2022/11/16 08:53:17;;;;;;;92.40;29.23;;;;;;;8.75;75.36;99648.36;125544;1096;102184;-76
2022/11/16 08:55:51;;;;;;;73.60;28.80;;;;;;;8.75;75.22;99644.00;125486;1108;103640;-76
2022/11/16 08:58:27;;;;;;;68.00;28.20;;;;;;;8.78;75.21;99636.24;125722;1096;102483;-75
2022/11/16 09:01:06;;;;;;;69.07;29.53;;;;;;;8.81;75.70;99627.61;125979;1095;102319;-75
2022/11/16 09:03:41;;;;;;;70.30;27.97;;;;;;;8.83;75.65;99627.66;125355;1109;103142;-74
2022/11/16 09:06:29;;;;;;;;;;;;;;;;;;;;;
2022/11/16 09:09:06;;;;;;;68.47;27.13;;;;;;;8.80;75.04;99626.73;125587;1105;101486;-77
2022/11/16 09:11:52;;;;;;;69.03;27.73;;;;;;;8.85;75.18;99616.40;125513;1105;102823;-77
2022/11/16 09:14:55;;;;;;;68.77;28.77;;;;;;;8.89;75.17;99615.62;125677;1105;101562;-78
2022/11/16 09:17:48;;;;;;;72.73;30.27;;;;;;;8.90;75.32;99612.17;125565;1106;102764;-77
2022/11/16 09:20:45;;;;;;;71.23;27.77;;;;;;;8.93;75.07;99617.49;125490;1105;102531;-76
2022/11/16 09:23:29;;;;;;;69.57;28.23;;;;;;;8.97;75.47;99607.98;125566;1105;102077;-75
2022/11/16 09:26:10;;;;;;;80.23;29.97;;;;;;;9.00;75.54;99606.33;125451;1105;102465;-75
2022/11/16 09:28:42;;;;;;;80.93;29.80;;;;;;;9.00;75.36;99602.84;125438;1105;102147;-74
2022/11/16 09:31:17;;;;;;;80.33;28.73;;;;;;;8.99;74.57;99601.05;125406;1106;103160;-75
2022/11/16 09:33:51;;;;;;;82.23;30.30;;;;;;;8.93;75.25;99590.45;125580;1105;108484;-76
2022/11/16 09:36:23;;;;;;;74.10;29.43;;;;;;;8.95;74.57;99565.20;125584;1105;102544;-75
2022/11/16 09:38:55;;;;;;;68.93;28.90;;;;;;;8.91;74.61;99560.72;125792;1105;102101;-76
2022/11/16 09:41:53;;;;;;;76.93;29.63;;;;;;;8.89;74.62;99568.53;125118;1105;102829;-74
2022/11/16 09:44:48;;;;;;;65.10;27.13;;;;;;;8.83;74.99;99568.36;124245;1105;117814;-76
2022/11/16 09:47:26;;;;;;;72.70;28.83;;;;;;;8.74;74.68;99575.95;124840;1104;104448;-74
2022/11/16 09:50:04;;;;;;;71.20;28.43;;;;;;;8.70;74.68;99571.49;124708;1105;102562;-73
2022/11/16 09:52:55;;;;;;;75.70;29.43;;;;;;;8.73;74.83;99555.89;125530;1105;102688;-75
2022/11/16 09:55:33;;;;;;;70.73;29.83;;;;;;;8.77;74.81;99562.95;125563;1105;103767;-74
2022/11/16 09:58:15;;;;;;;74.33;29.47;;;;;;;8.83;74.48;99564.87;125673;1105;102407;-74
2022/11/16 10:00:52;;;;;;;68.20;28.53;;;;;;;8.89;74.50;99558.06;125556;1105;102448;-74
2022/11/16 10:03:31;;;;;;;71.13;28.33;;;;;;;8.92;74.87;99547.69;125325;1106;102724;-73
2022/11/16 10:06:06;;;;;;;68.97;29.27;;;;;;;9.00;74.80;99547.89;125514;1105;102255;-75
2022/11/16 10:08:50;;;;;;;69.60;27.87;;;;;;;9.10;74.60;99546.39;125438;1107;101585;-75
2022/11/16 10:11:57;;;;;;;70.17;28.47;;;;;;;9.13;74.49;99543.86;125493;1105;102037;-76
2022/11/16 10:14:50;;;;;;;67.93;28.70;;;;;;;9.11;75.02;99548.17;125274;1109;102808;-74
2022/11/16 10:17:32;;;;;;;67.23;28.50;;;;;;;9.14;75.07;99543.02;125648;1105;102248;-74
2022/11/16 10:20:18;;;;;;;72.77;29.03;;;;;;;9.17;75.10;99540.48;125472;1105;102361;-75
2022/11/16 10:23:01;;;;;;;74.27;28.43;;;;;;;9.20;74.41;99522.24;125512;1105;101702;-75
2022/11/16 10:25:39;;;;;;;71.03;30.17;;;;;;;9.20;74.71;99532.72;125443;1105;118599;-75
2022/11/16 10:28:36;;;;;;;73.60;30.00;;;;;;;9.15;74.86;99529.10;125380;1106;102833;-74
2022/11/16 10:31:16;;;;;;;71.37;28.67;;;;;;;9.13;74.85;99525.53;125500;1105;102209;-74
2022/11/16 10:33:53;;;;;;;74.17;30.80;;;;;;;9.15;74.87;99521.25;125608;1105;102596;-76
2022/11/16 10:36:29;;;;;;;66.07;29.70;;;;;;;9.15;74.24;99518.63;125952;1102;102772;-74
2022/11/16 10:39:02;;;;;;;78.43;30.77;;;;;;;9.17;74.28;99509.95;126020;1101;103629;-75
2022/11/16 10:41:40;;;;;;;68.70;28.87;;;;;;;9.21;74.42;99505.70;125779;1102;102221;-73
2022/11/16 10:44:19;;;;;;;69.30;29.00;;;;;;;9.23;74.75;99511.85;125528;1101;102903;-74
2022/11/16 10:47:08;;;;;;;72.00;29.70;;;;;;;9.24;74.84;99512.72;124711;1102;104255;-76
2022/11/16 10:50:01;;;;;;;76.27;29.87;;;;;;;9.25;74.89;99502.30;124630;1102;102176;-77
2022/11/16 10:52:34;;;;;;;75.80;30.53;;;;;;;9.28;74.77;99497.13;124718;1102;104271;-76
2022/11/16 10:55:20;;;;;;;77.70;31.05;;;;;;;9.28;74.13;99491.90;124727;1102;104082;-77
2022/11/16 10:58:11;;;;;;;76.13;30.50;;;;;;;9.32;74.80;99492.88;124849;1102;102782;-76
2022/11/16 11:00:51;;;;;;;71.10;29.37;;;;;;;9.35;74.85;99474.63;124568;1103;103508;-75
2022/11/16 11:03:33;;;;;;;69.90;28.87;;;;;;;9.35;74.26;99477.25;125000;1102;102725;-76
2022/11/16 11:06:12;;;;;;;71.73;28.90;;;;;;;9.32;73.85;99478.05;124544;1102;104229;-76
2022/11/16 11:08:44;;;;;;;67.65;28.85;;;;;;;9.31;74.49;99485.87;124720;1102;104184;-76
2022/11/16 11:14:17;;;;;;;69.23;29.00;;;;;;;9.27;74.03;99497.09;124536;1102;102726;-76
2022/11/16 11:16:56;;;;;;;68.53;28.17;;;;;;;9.26;74.58;99506.69;124575;1102;104280;-76
2022/11/16 11:19:29;;;;;;;72.67;28.47;;;;;;;9.28;74.23;99493.64;124981;1101;104251;-77
2022/11/16 11:22:03;;;;;;;69.13;28.07;;;;;;;9.29;74.13;99493.68;125010;1102;102441;-76
2022/11/16 11:24:36;;;;;;;69.37;29.93;;;;;;;9.31;74.59;99491.97;125099;1102;102735;-77
2022/11/16 11:27:14;;;;;;;67.80;29.57;;;;;;;9.34;74.50;99494.67;124823;1102;102813;-78
2022/11/16 11:29:58;;;;;;;75.03;32.10;;;;;;;9.37;74.65;99485.14;125048;1102;102311;-76
2022/11/16 11:32:51;;;;;;;;;;;;;;;;;;;;;
2022/11/16 11:35:33;;;;;;;69.80;30.97;;;;;;;9.39;74.54;99470.34;125044;1106;104343;-78
2022/11/16 11:38:15;;;;;;;75.13;30.13;;;;;;;9.35;74.42;99474.63;124990;1102;104047;-77
2022/11/16 11:41:00;;;;;;;70.27;29.13;;;;;;;9.33;73.92;99466.74;124810;1102;104255;-76
2022/11/16 11:43:49;;;;;;;71.57;29.77;;;;;;;9.37;73.91;99472.05;125182;1105;102109;-78
2022/11/16 11:46:36;;;;;;;71.43;28.40;;;;;;;9.42;73.89;99470.42;125389;1102;102229;-76
2022/11/16 11:49:25;;;;;;;79.83;29.57;;;;;;;9.43;74.50;99459.98;125206;1102;102927;-77
2022/11/16 11:52:16;;;;;;;71.07;28.23;;;;;;;9.45;73.87;99460.89;125422;1102;102917;-78
2022/11/16 11:55:03;;;;;;;68.67;27.90;;;;;;;9.43;74.34;99461.73;125444;1102;103105;-77
2022/11/16 12:00:59;;;;;;;;;;;;;;;;;;;;;
2022/11/16 12:04:28;;;;;;;;;;;;;;;;;;;;;
2022/11/16 12:07:27;;;;;;;70.90;27.60;;;;;;;9.35;74.35;99432.74;124470;1102;103105;-75
2022/11/16 12:10:13;;;;;;;70.93;28.60;;;;;;;9.32;74.15;99433.55;124580;1102;104175;-77
2022/11/16 12:12:57;;;;;;;63.40;25.20;;;;;;;9.29;74.28;99445.69;124538;1103;103384;-77
2022/11/16 12:18:57;;;;;;;61.37;26.33;;;;;;;9.24;73.66;99448.19;125012;1102;104118;-77
2022/11/16 12:21:59;;;;;;;;;;;;;;;;;;;;;
2022/11/16 12:24:56;;;;;;;65.17;26.77;;;;;;;9.18;73.85;99434.95;125014;1105;104144;-76
2022/11/16 12:27:43;;;;;;;66.67;26.17;;;;;;;9.17;73.58;99439.28;124992;1105;104217;-75
2022/11/16 12:30:21;;;;;;;70.13;25.97;;;;;;;9.18;74.08;99448.92;125131;1105;104251;-75
2022/11/16 12:33:10;;;;;;;64.87;26.73;;;;;;;9.16;73.68;99449.72;125245;1105;104192;-76
2022/11/16 12:35:56;;;;;;;68.47;26.90;;;;;;;9.14;74.00;99438.34;124593;1105;104227;-78
2022/11/16 12:39:03;;;;;;;65.33;26.43;;;;;;;9.12;73.98;99434.80;124554;1106;103013;-76
2022/11/16 12:42:05;;;;;;;73.20;30.37;;;;;;;9.11;74.23;99439.13;124551;1106;104174;-76
2022/11/16 12:45:01;;;;;;;67.53;28.80;;;;;;;9.12;73.47;99437.42;124711;1105;104361;-75
2022/11/16 12:47:53;;;;;;;63.20;26.53;;;;;;;9.11;73.99;99433.02;124464;1105;103969;-75
2022/11/16 12:50:52;;;;;;;71.20;28.17;;;;;;;9.12;73.71;99437.42;124652;1105;108623;-75
2022/11/16 12:53:52;;;;;;;69.27;26.33;;;;;;;9.10;74.03;99426.92;125012;1105;102651;-76
2022/11/16 12:56:47;;;;;;;74.33;27.40;;;;;;;9.14;73.57;99427.86;125339;1105;102856;-76
2022/11/16 12:59:46;;;;;;;66.10;27.07;;;;;;;9.11;73.55;99433.90;124640;1105;102889;-75
2022/11/16 13:02:48;;;;;;;;;;;;;;;;;;;;;
2022/11/16 13:05:53;;;;;;;64.43;27.93;;;;;;;9.11;74.05;99433.90;125008;1106;102338;-74